N84PW KGTF-KOAK
Flight info
| Callsign | N84PW |
|---|---|
| Flight time | 1h 51m |
| Altitude | 38000 |
| Route | MSURY V257 SIEBE FIPFE BARNR PRNCS HOLLR FMG MRLET OAKES3 |
| Aircraft | C750/M-SBDE3FGHRWXY/S |
Departure
| Time | 2026-04-26 13:39 |
|---|---|
| Airport | Great Falls International Airport (KGTF) |
Arrival
| Time | 2026-04-26 15:30 |
|---|---|
| Airport | San Francisco Bay Oakland International Airport (KOAK) |
| Time | Latitude | Longitude | Altitude | Speed | Heading |
|---|---|---|---|---|---|
| 2026-04-26 13:19 | 47.47899 | -111.36568 | 3670 ft | 0 kts | 223° |
| 2026-04-26 13:33 | 47.47894 | -111.36579 | 3670 ft | 4 kts | 238° |
| 2026-04-26 13:33 | 47.47897 | -111.36640 | 3670 ft | 9 kts | 274° |
| 2026-04-26 13:33 | 47.47864 | -111.36735 | 3671 ft | 11 kts | 231° |
| 2026-04-26 13:33 | 47.47807 | -111.36821 | 3671 ft | 12 kts | 225° |
| 2026-04-26 13:34 | 47.47747 | -111.36910 | 3672 ft | 12 kts | 223° |
| 2026-04-26 13:34 | 47.47685 | -111.37000 | 3673 ft | 13 kts | 226° |
| 2026-04-26 13:34 | 47.47620 | -111.37097 | 3673 ft | 14 kts | 225° |
| 2026-04-26 13:34 | 47.47576 | -111.37164 | 3673 ft | 14 kts | 227° |
| 2026-04-26 13:35 | 47.47482 | -111.37302 | 3674 ft | 15 kts | 224° |
| 2026-04-26 13:35 | 47.47410 | -111.37408 | 3675 ft | 15 kts | 226° |
| 2026-04-26 13:35 | 47.47336 | -111.37517 | 3675 ft | 15 kts | 225° |
| 2026-04-26 13:35 | 47.47260 | -111.37632 | 3676 ft | 16 kts | 225° |
| 2026-04-26 13:36 | 47.47179 | -111.37745 | 3677 ft | 16 kts | 225° |
| 2026-04-26 13:36 | 47.47098 | -111.37862 | 3677 ft | 17 kts | 224° |
| 2026-04-26 13:36 | 47.47012 | -111.37984 | 3678 ft | 17 kts | 223° |
| 2026-04-26 13:36 | 47.46926 | -111.38112 | 3679 ft | 18 kts | 227° |
| 2026-04-26 13:37 | 47.46875 | -111.38222 | 3680 ft | 2 kts | 261° |
| 2026-04-26 13:37 | 47.46876 | -111.38256 | 3680 ft | 7 kts | 282° |
| 2026-04-26 13:37 | 47.46925 | -111.38341 | 3680 ft | 16 kts | 327° |
| 2026-04-26 13:37 | 47.46989 | -111.38307 | 3679 ft | 0 kts | 44° |
| 2026-04-26 13:38 | 47.47008 | -111.38280 | 3678 ft | 24 kts | 46° |
| 2026-04-26 13:38 | 47.47354 | -111.37768 | 3675 ft | 111 kts | 46° |
| 2026-04-26 13:38 | 47.48005 | -111.36790 | 3735 ft | 148 kts | 45° |
| 2026-04-26 13:38 | 47.48791 | -111.35646 | 4037 ft | 165 kts | 43° |
| 2026-04-26 13:39 | 47.49629 | -111.34459 | 4713 ft | 167 kts | 44° |
| 2026-04-26 13:39 | 47.50485 | -111.33240 | 5153 ft | 183 kts | 44° |
| 2026-04-26 13:39 | 47.51477 | -111.31914 | 5533 ft | 179 kts | 43° |
| 2026-04-26 13:39 | 47.52321 | -111.31249 | 6938 ft | 127 kts | 15° |
| 2026-04-26 13:40 | 47.53449 | -111.31433 | 5444 ft | 217 kts | 339° |
| 2026-04-26 13:40 | 47.54508 | -111.33023 | 5657 ft | 221 kts | 298° |
| 2026-04-26 13:40 | 47.54920 | -111.35259 | 6227 ft | 232 kts | 273° |
| 2026-04-26 13:40 | 47.54635 | -111.37648 | 6815 ft | 242 kts | 246° |
| 2026-04-26 13:41 | 47.53728 | -111.39782 | 7446 ft | 249 kts | 227° |
| 2026-04-26 13:41 | 47.52449 | -111.41556 | 7968 ft | 266 kts | 219° |
| 2026-04-26 13:41 | 47.50951 | -111.43296 | 8606 ft | 276 kts | 217° |
| 2026-04-26 13:41 | 47.49413 | -111.44953 | 9631 ft | 272 kts | 216° |
| 2026-04-26 13:42 | 47.47827 | -111.46523 | 10275 ft | 280 kts | 212° |
| 2026-04-26 13:42 | 47.46100 | -111.48027 | 10689 ft | 293 kts | 210° |
| 2026-04-26 13:42 | 47.44319 | -111.49569 | 11215 ft | 301 kts | 212° |
| 2026-04-26 13:42 | 47.42502 | -111.51229 | 11745 ft | 313 kts | 213° |
| 2026-04-26 13:43 | 47.40620 | -111.52961 | 12289 ft | 324 kts | 213° |
| 2026-04-26 13:43 | 47.38661 | -111.54728 | 12842 ft | 334 kts | 213° |
| 2026-04-26 13:43 | 47.36650 | -111.56531 | 13409 ft | 341 kts | 213° |
| 2026-04-26 13:43 | 47.34608 | -111.58378 | 14037 ft | 345 kts | 213° |
| 2026-04-26 13:44 | 47.32581 | -111.60212 | 14728 ft | 347 kts | 213° |
| 2026-04-26 13:44 | 47.30515 | -111.62074 | 15386 ft | 350 kts | 213° |
| 2026-04-26 13:44 | 47.28428 | -111.63952 | 16001 ft | 354 kts | 213° |
| 2026-04-26 13:44 | 47.26318 | -111.65852 | 16692 ft | 357 kts | 213° |
| 2026-04-26 13:45 | 47.24302 | -111.67991 | 17358 ft | 358 kts | 223° |
| 2026-04-26 13:45 | 47.22525 | -111.70571 | 18098 ft | 359 kts | 228° |
| 2026-04-26 13:45 | 47.20783 | -111.73236 | 18739 ft | 363 kts | 227° |
| 2026-04-26 13:45 | 47.18911 | -111.75756 | 19346 ft | 367 kts | 222° |
| 2026-04-26 13:46 | 47.16935 | -111.78163 | 19967 ft | 371 kts | 221° |
| 2026-04-26 13:46 | 47.14979 | -111.80665 | 20606 ft | 374 kts | 223° |
| 2026-04-26 13:46 | 47.13057 | -111.83263 | 21211 ft | 378 kts | 224° |
| 2026-04-26 13:46 | 47.11095 | -111.85863 | 21835 ft | 382 kts | 223° |
| 2026-04-26 13:47 | 47.09082 | -111.88440 | 22463 ft | 386 kts | 222° |
| 2026-04-26 13:47 | 47.07049 | -111.91059 | 22996 ft | 392 kts | 223° |
| 2026-04-26 13:47 | 47.05029 | -111.93707 | 23565 ft | 396 kts | 223° |
| 2026-04-26 13:47 | 47.02965 | -111.96405 | 24074 ft | 399 kts | 223° |
| 2026-04-26 13:48 | 47.00873 | -111.99109 | 24576 ft | 403 kts | 223° |
| 2026-04-26 13:48 | 46.98767 | -112.01829 | 25095 ft | 406 kts | 223° |
| 2026-04-26 13:48 | 46.96642 | -112.04585 | 25606 ft | 409 kts | 223° |
| 2026-04-26 13:48 | 46.94501 | -112.07359 | 26111 ft | 412 kts | 223° |
| 2026-04-26 13:49 | 46.92344 | -112.10143 | 26617 ft | 416 kts | 222° |
| 2026-04-26 13:49 | 46.90162 | -112.12956 | 27121 ft | 419 kts | 223° |
| 2026-04-26 13:49 | 46.87974 | -112.15799 | 27670 ft | 421 kts | 224° |
| 2026-04-26 13:49 | 46.85810 | -112.18725 | 28085 ft | 427 kts | 223° |
| 2026-04-26 13:50 | 46.83610 | -112.21660 | 28607 ft | 430 kts | 223° |
| 2026-04-26 13:50 | 46.81382 | -112.24620 | 29121 ft | 433 kts | 223° |
| 2026-04-26 13:50 | 46.79150 | -112.27607 | 29618 ft | 437 kts | 223° |
| 2026-04-26 13:50 | 46.76905 | -112.30613 | 30095 ft | 440 kts | 223° |
| 2026-04-26 13:51 | 46.74634 | -112.33637 | 30513 ft | 443 kts | 223° |
| 2026-04-26 13:51 | 46.72351 | -112.36669 | 30984 ft | 444 kts | 223° |
| 2026-04-26 13:51 | 46.70078 | -112.39690 | 31681 ft | 440 kts | 223° |
| 2026-04-26 13:51 | 46.67824 | -112.42687 | 32349 ft | 438 kts | 223° |
| 2026-04-26 13:52 | 46.65576 | -112.45669 | 32942 ft | 437 kts | 223° |
| 2026-04-26 13:52 | 46.63363 | -112.48598 | 33564 ft | 435 kts | 223° |
| 2026-04-26 13:52 | 46.61127 | -112.51558 | 34187 ft | 433 kts | 223° |
| 2026-04-26 13:52 | 46.58898 | -112.54505 | 34637 ft | 434 kts | 223° |
| 2026-04-26 13:53 | 46.56655 | -112.57466 | 35071 ft | 435 kts | 223° |
| 2026-04-26 13:53 | 46.54412 | -112.60421 | 35514 ft | 436 kts | 223° |
| 2026-04-26 13:53 | 46.52162 | -112.63386 | 35958 ft | 437 kts | 223° |
| 2026-04-26 13:53 | 46.49909 | -112.66352 | 36415 ft | 438 kts | 223° |
| 2026-04-26 13:54 | 46.47646 | -112.69324 | 36881 ft | 439 kts | 223° |
| 2026-04-26 13:54 | 46.45376 | -112.72303 | 37321 ft | 441 kts | 223° |
| 2026-04-26 13:54 | 46.43096 | -112.75292 | 37753 ft | 442 kts | 223° |
| 2026-04-26 13:55 | 46.38439 | -112.81387 | 37881 ft | 462 kts | 223° |
| 2026-04-26 13:55 | 46.36846 | -112.83470 | 37885 ft | 469 kts | 223° |
| 2026-04-26 13:55 | 46.31074 | -112.90994 | 37887 ft | 491 kts | 223° |
| 2026-04-26 13:56 | 46.28515 | -112.94323 | 37886 ft | 497 kts | 223° |
| 2026-04-26 13:56 | 46.23345 | -113.01037 | 37884 ft | 502 kts | 223° |
| 2026-04-26 13:57 | 46.18133 | -113.07787 | 37880 ft | 503 kts | 223° |
| 2026-04-26 13:57 | 46.12917 | -113.14525 | 37878 ft | 503 kts | 223° |
| 2026-04-26 13:58 | 46.07691 | -113.21258 | 37877 ft | 504 kts | 223° |
| 2026-04-26 13:58 | 46.02457 | -113.27981 | 37860 ft | 505 kts | 223° |
| 2026-04-26 13:59 | 45.97227 | -113.34685 | 37861 ft | 502 kts | 223° |
| 2026-04-26 13:59 | 45.92042 | -113.41313 | 37861 ft | 503 kts | 223° |
| 2026-04-26 14:00 | 45.81571 | -113.54644 | 37861 ft | 503 kts | 223° |
| 2026-04-26 14:01 | 45.76317 | -113.61306 | 37859 ft | 503 kts | 223° |
| 2026-04-26 14:01 | 45.71094 | -113.67913 | 37850 ft | 504 kts | 223° |
| 2026-04-26 14:02 | 45.65859 | -113.74516 | 37854 ft | 501 kts | 223° |
| 2026-04-26 14:02 | 45.60626 | -113.81102 | 37856 ft | 501 kts | 223° |
| 2026-04-26 14:03 | 45.55388 | -113.87674 | 37852 ft | 501 kts | 223° |
| 2026-04-26 14:03 | 45.50147 | -113.94236 | 37857 ft | 501 kts | 222° |
| 2026-04-26 14:04 | 45.44894 | -114.00794 | 37846 ft | 503 kts | 222° |
| 2026-04-26 14:04 | 45.40514 | -114.06250 | 37832 ft | 502 kts | 222° |
| 2026-04-26 14:05 | 45.35050 | -114.12408 | 37834 ft | 503 kts | 218° |
| 2026-04-26 14:05 | 45.29435 | -114.18342 | 37840 ft | 502 kts | 218° |
| 2026-04-26 14:06 | 45.23852 | -114.24301 | 37837 ft | 504 kts | 218° |
| 2026-04-26 14:06 | 45.18224 | -114.30236 | 37835 ft | 504 kts | 218° |
| 2026-04-26 14:07 | 45.12609 | -114.36184 | 37814 ft | 503 kts | 218° |
| 2026-04-26 14:07 | 45.07038 | -114.42041 | 37813 ft | 502 kts | 218° |
| 2026-04-26 14:08 | 45.01429 | -114.47941 | 37811 ft | 505 kts | 218° |
| 2026-04-26 14:08 | 44.95796 | -114.53841 | 37810 ft | 504 kts | 218° |
| 2026-04-26 14:09 | 44.90161 | -114.59738 | 37795 ft | 504 kts | 218° |
| 2026-04-26 14:09 | 44.84524 | -114.65614 | 37796 ft | 502 kts | 218° |
| 2026-04-26 14:10 | 44.78891 | -114.71476 | 37781 ft | 504 kts | 218° |
| 2026-04-26 14:10 | 44.73253 | -114.77328 | 37786 ft | 504 kts | 218° |
| 2026-04-26 14:11 | 44.64820 | -114.86053 | 37769 ft | 504 kts | 218° |
| 2026-04-26 14:11 | 44.59165 | -114.91885 | 37768 ft | 506 kts | 218° |
| 2026-04-26 14:12 | 44.53515 | -114.97697 | 37765 ft | 503 kts | 218° |
| 2026-04-26 14:12 | 44.47874 | -115.03489 | 37755 ft | 503 kts | 218° |
| 2026-04-26 14:13 | 44.39380 | -115.12179 | 37751 ft | 504 kts | 217° |
| 2026-04-26 14:14 | 44.33702 | -115.17971 | 37743 ft | 505 kts | 217° |
| 2026-04-26 14:14 | 44.28041 | -115.23732 | 37733 ft | 501 kts | 217° |
| 2026-04-26 14:15 | 44.22394 | -115.29465 | 37729 ft | 502 kts | 217° |
| 2026-04-26 14:15 | 44.16742 | -115.35188 | 37729 ft | 504 kts | 217° |
| 2026-04-26 14:16 | 44.11105 | -115.40883 | 37723 ft | 504 kts | 217° |
| 2026-04-26 14:16 | 44.05429 | -115.46603 | 37729 ft | 504 kts | 217° |
| 2026-04-26 14:17 | 43.99814 | -115.52378 | 37712 ft | 500 kts | 221° |
| 2026-04-26 14:17 | 43.95025 | -115.59391 | 37745 ft | 502 kts | 229° |
| 2026-04-26 14:18 | 43.90330 | -115.66558 | 37746 ft | 502 kts | 228° |
| 2026-04-26 14:18 | 43.85638 | -115.73725 | 37759 ft | 502 kts | 229° |
| 2026-04-26 14:19 | 43.80946 | -115.80876 | 37764 ft | 503 kts | 229° |
| 2026-04-26 14:19 | 43.76235 | -115.88026 | 37755 ft | 503 kts | 229° |
| 2026-04-26 14:20 | 43.71527 | -115.95167 | 37762 ft | 503 kts | 228° |
| 2026-04-26 14:20 | 43.66800 | -116.02306 | 37754 ft | 502 kts | 229° |
| 2026-04-26 14:21 | 43.62110 | -116.09383 | 37763 ft | 502 kts | 229° |
| 2026-04-26 14:21 | 43.57384 | -116.16488 | 37792 ft | 502 kts | 228° |
| 2026-04-26 14:22 | 43.52643 | -116.23606 | 37792 ft | 502 kts | 228° |
| 2026-04-26 14:22 | 43.47903 | -116.30690 | 37801 ft | 504 kts | 228° |
| 2026-04-26 14:23 | 43.43159 | -116.37781 | 37799 ft | 503 kts | 228° |
| 2026-04-26 14:23 | 43.38416 | -116.44838 | 37802 ft | 501 kts | 228° |
| 2026-04-26 14:24 | 43.33682 | -116.51875 | 37797 ft | 502 kts | 228° |
| 2026-04-26 14:24 | 43.28953 | -116.58879 | 37785 ft | 503 kts | 228° |
| 2026-04-26 14:25 | 43.24195 | -116.65914 | 37773 ft | 503 kts | 228° |
| 2026-04-26 14:25 | 43.19425 | -116.72947 | 37771 ft | 503 kts | 228° |
| 2026-04-26 14:26 | 43.14656 | -116.79961 | 37753 ft | 503 kts | 228° |
| 2026-04-26 14:26 | 43.09874 | -116.86975 | 37763 ft | 504 kts | 228° |
| 2026-04-26 14:27 | 43.05098 | -116.93967 | 37764 ft | 504 kts | 228° |
| 2026-04-26 14:27 | 43.00309 | -117.00959 | 37777 ft | 504 kts | 228° |
| 2026-04-26 14:28 | 42.95506 | -117.07956 | 37787 ft | 505 kts | 228° |
| 2026-04-26 14:28 | 42.90702 | -117.14934 | 37792 ft | 505 kts | 228° |
| 2026-04-26 14:29 | 42.85892 | -117.21904 | 37774 ft | 505 kts | 228° |
| 2026-04-26 14:29 | 42.81067 | -117.28884 | 37783 ft | 506 kts | 227° |
| 2026-04-26 14:30 | 42.76238 | -117.35848 | 37781 ft | 503 kts | 227° |
| 2026-04-26 14:30 | 42.71434 | -117.42758 | 37787 ft | 503 kts | 227° |
| 2026-04-26 14:31 | 42.66622 | -117.49668 | 37789 ft | 506 kts | 227° |
| 2026-04-26 14:31 | 42.61807 | -117.56561 | 37787 ft | 505 kts | 227° |
| 2026-04-26 14:32 | 42.56962 | -117.63484 | 37787 ft | 506 kts | 227° |
| 2026-04-26 14:32 | 42.52112 | -117.70394 | 37784 ft | 506 kts | 227° |
| 2026-04-26 14:33 | 42.47234 | -117.77330 | 37787 ft | 508 kts | 227° |
| 2026-04-26 14:33 | 42.42124 | -117.83794 | 37783 ft | 507 kts | 219° |
| 2026-04-26 14:34 | 42.36470 | -117.89533 | 37782 ft | 508 kts | 218° |
| 2026-04-26 14:34 | 42.30846 | -117.95391 | 37779 ft | 510 kts | 219° |
| 2026-04-26 14:35 | 42.25189 | -118.01167 | 37765 ft | 510 kts | 218° |
| 2026-04-26 14:35 | 42.19549 | -118.06973 | 37757 ft | 510 kts | 219° |
| 2026-04-26 14:36 | 42.13903 | -118.12737 | 37746 ft | 509 kts | 218° |
| 2026-04-26 14:36 | 42.08290 | -118.18474 | 37747 ft | 509 kts | 219° |
| 2026-04-26 14:37 | 42.02641 | -118.24225 | 37741 ft | 509 kts | 218° |
| 2026-04-26 14:37 | 41.96986 | -118.29970 | 37736 ft | 509 kts | 218° |
| 2026-04-26 14:38 | 41.91328 | -118.35708 | 37726 ft | 507 kts | 218° |
| 2026-04-26 14:38 | 41.85705 | -118.41395 | 37718 ft | 506 kts | 218° |
| 2026-04-26 14:39 | 41.80074 | -118.47078 | 37725 ft | 506 kts | 218° |
| 2026-04-26 14:39 | 41.74435 | -118.52756 | 37723 ft | 507 kts | 218° |
| 2026-04-26 14:40 | 41.68824 | -118.58394 | 37724 ft | 507 kts | 218° |
| 2026-04-26 14:40 | 41.63185 | -118.64047 | 37722 ft | 506 kts | 218° |
| 2026-04-26 14:41 | 41.57530 | -118.69704 | 37715 ft | 509 kts | 218° |
| 2026-04-26 14:41 | 41.51869 | -118.75353 | 37713 ft | 508 kts | 218° |
| 2026-04-26 14:42 | 41.46190 | -118.80961 | 37709 ft | 508 kts | 216° |
| 2026-04-26 14:42 | 41.39797 | -118.85049 | 37713 ft | 515 kts | 200° |
| 2026-04-26 14:43 | 41.32971 | -118.87947 | 37727 ft | 514 kts | 200° |
| 2026-04-26 14:43 | 41.26191 | -118.91042 | 37723 ft | 514 kts | 201° |
| 2026-04-26 14:44 | 41.19378 | -118.94001 | 37722 ft | 515 kts | 200° |
| 2026-04-26 14:44 | 41.12602 | -118.97025 | 37711 ft | 514 kts | 201° |
| 2026-04-26 14:45 | 41.05852 | -118.99982 | 37711 ft | 514 kts | 200° |
| 2026-04-26 14:45 | 40.99062 | -119.02975 | 37712 ft | 514 kts | 201° |
| 2026-04-26 14:46 | 40.92270 | -119.05950 | 37723 ft | 514 kts | 201° |
| 2026-04-26 14:46 | 40.85477 | -119.08925 | 37717 ft | 514 kts | 201° |
| 2026-04-26 14:47 | 40.78672 | -119.11897 | 37721 ft | 514 kts | 201° |
| 2026-04-26 14:47 | 40.71892 | -119.14850 | 37733 ft | 512 kts | 201° |
| 2026-04-26 14:48 | 40.65127 | -119.17794 | 37740 ft | 512 kts | 201° |
| 2026-04-26 14:48 | 40.58388 | -119.20716 | 37740 ft | 513 kts | 201° |
| 2026-04-26 14:49 | 40.51616 | -119.23650 | 37746 ft | 511 kts | 201° |
| 2026-04-26 14:49 | 40.44840 | -119.26577 | 37748 ft | 514 kts | 201° |
| 2026-04-26 14:50 | 40.38047 | -119.29507 | 37762 ft | 514 kts | 201° |
| 2026-04-26 14:50 | 40.31255 | -119.32430 | 37742 ft | 514 kts | 201° |
| 2026-04-26 14:51 | 40.24460 | -119.35347 | 37754 ft | 514 kts | 201° |
| 2026-04-26 14:51 | 40.17661 | -119.38260 | 37756 ft | 514 kts | 201° |
| 2026-04-26 14:52 | 40.10905 | -119.41149 | 37762 ft | 515 kts | 201° |
| 2026-04-26 14:52 | 40.04117 | -119.44044 | 37752 ft | 512 kts | 201° |
| 2026-04-26 14:53 | 39.97332 | -119.46934 | 37752 ft | 512 kts | 201° |
| 2026-04-26 14:53 | 39.91696 | -119.49328 | 37755 ft | 513 kts | 201° |
| 2026-04-26 14:54 | 39.84909 | -119.52205 | 37764 ft | 511 kts | 201° |
| 2026-04-26 14:54 | 39.78145 | -119.55069 | 37781 ft | 513 kts | 201° |
| 2026-04-26 14:55 | 39.71351 | -119.57939 | 37798 ft | 513 kts | 201° |
| 2026-04-26 14:55 | 39.64563 | -119.60799 | 37799 ft | 513 kts | 201° |
| 2026-04-26 14:56 | 39.57782 | -119.63652 | 37827 ft | 512 kts | 201° |
| 2026-04-26 14:56 | 39.50997 | -119.66500 | 37835 ft | 512 kts | 201° |
| 2026-04-26 14:57 | 39.44264 | -119.69336 | 37833 ft | 512 kts | 201° |
| 2026-04-26 14:57 | 39.37516 | -119.72256 | 37816 ft | 509 kts | 204° |
| 2026-04-26 14:58 | 39.31036 | -119.75893 | 37843 ft | 510 kts | 204° |
| 2026-04-26 14:58 | 39.24137 | -119.78204 | 37871 ft | 514 kts | 196° |
| 2026-04-26 14:59 | 39.17183 | -119.80313 | 37865 ft | 512 kts | 197° |
| 2026-04-26 14:59 | 39.10246 | -119.82442 | 37858 ft | 513 kts | 196° |
| 2026-04-26 15:00 | 39.03283 | -119.84544 | 37843 ft | 513 kts | 197° |
| 2026-04-26 15:00 | 38.96324 | -119.86668 | 37840 ft | 513 kts | 197° |
| 2026-04-26 15:01 | 38.89379 | -119.88761 | 37883 ft | 512 kts | 197° |
| 2026-04-26 15:01 | 38.82442 | -119.90865 | 37881 ft | 512 kts | 197° |
| 2026-04-26 15:02 | 38.75489 | -119.92955 | 37866 ft | 513 kts | 197° |
| 2026-04-26 15:02 | 38.68543 | -119.95050 | 37864 ft | 513 kts | 197° |
| 2026-04-26 15:03 | 38.61633 | -119.97124 | 37844 ft | 513 kts | 197° |
| 2026-04-26 15:03 | 38.54667 | -119.99213 | 37831 ft | 513 kts | 197° |
| 2026-04-26 15:04 | 38.47728 | -120.01288 | 37844 ft | 512 kts | 197° |
| 2026-04-26 15:04 | 38.40793 | -120.03359 | 37858 ft | 512 kts | 197° |
| 2026-04-26 15:05 | 38.33901 | -120.05414 | 37861 ft | 512 kts | 197° |
| 2026-04-26 15:05 | 38.31566 | -120.06116 | 37805 ft | 501 kts | 197° |
| 2026-04-26 15:05 | 38.27364 | -120.07969 | 36854 ft | 471 kts | 208° |
| 2026-04-26 15:05 | 38.24499 | -120.09924 | 35992 ft | 463 kts | 213° |
| 2026-04-26 15:06 | 38.21699 | -120.11930 | 35370 ft | 463 kts | 212° |
| 2026-04-26 15:06 | 38.18843 | -120.13886 | 34777 ft | 468 kts | 212° |
| 2026-04-26 15:06 | 38.15966 | -120.15838 | 34206 ft | 470 kts | 212° |
| 2026-04-26 15:06 | 38.13090 | -120.17838 | 33595 ft | 471 kts | 212° |
| 2026-04-26 15:07 | 38.07384 | -120.21812 | 32246 ft | 462 kts | 212° |
| 2026-04-26 15:07 | 38.04566 | -120.23742 | 31599 ft | 458 kts | 212° |
| 2026-04-26 15:07 | 38.01777 | -120.25666 | 30967 ft | 453 kts | 212° |
| 2026-04-26 15:08 | 37.99064 | -120.27547 | 30358 ft | 448 kts | 212° |
| 2026-04-26 15:08 | 37.96392 | -120.29387 | 29704 ft | 425 kts | 212° |
| 2026-04-26 15:08 | 37.93843 | -120.31134 | 29121 ft | 409 kts | 212° |
| 2026-04-26 15:08 | 37.91396 | -120.32916 | 28559 ft | 403 kts | 218° |
| 2026-04-26 15:09 | 37.89365 | -120.35302 | 28030 ft | 396 kts | 233° |
| 2026-04-26 15:09 | 37.87899 | -120.38212 | 27508 ft | 389 kts | 246° |
| 2026-04-26 15:09 | 37.87061 | -120.41435 | 27001 ft | 384 kts | 259° |
| 2026-04-26 15:09 | 37.86513 | -120.44741 | 26500 ft | 383 kts | 259° |
| 2026-04-26 15:10 | 37.85968 | -120.48033 | 25987 ft | 381 kts | 259° |
| 2026-04-26 15:10 | 37.85601 | -120.50204 | 25652 ft | 380 kts | 259° |
| 2026-04-26 15:10 | 37.84861 | -120.54556 | 24976 ft | 377 kts | 259° |
| 2026-04-26 15:10 | 37.84316 | -120.57788 | 24475 ft | 375 kts | 259° |
| 2026-04-26 15:11 | 37.83774 | -120.61006 | 23972 ft | 373 kts | 259° |
| 2026-04-26 15:11 | 37.83231 | -120.64207 | 23469 ft | 372 kts | 259° |
| 2026-04-26 15:11 | 37.82688 | -120.67398 | 22938 ft | 368 kts | 259° |
| 2026-04-26 15:11 | 37.82150 | -120.70553 | 22448 ft | 366 kts | 259° |
| 2026-04-26 15:12 | 37.81614 | -120.73696 | 21959 ft | 364 kts | 259° |
| 2026-04-26 15:12 | 37.81088 | -120.76775 | 21484 ft | 362 kts | 259° |
| 2026-04-26 15:12 | 37.80559 | -120.79874 | 21000 ft | 359 kts | 259° |
| 2026-04-26 15:12 | 37.80043 | -120.82876 | 20529 ft | 339 kts | 259° |
| 2026-04-26 15:13 | 37.79550 | -120.85747 | 20087 ft | 330 kts | 259° |
| 2026-04-26 15:13 | 37.79065 | -120.88566 | 19649 ft | 327 kts | 259° |
| 2026-04-26 15:13 | 37.78576 | -120.91370 | 19215 ft | 326 kts | 258° |
| 2026-04-26 15:13 | 37.78090 | -120.94158 | 18808 ft | 324 kts | 258° |
| 2026-04-26 15:14 | 37.77609 | -120.96922 | 18421 ft | 321 kts | 259° |
| 2026-04-26 15:14 | 37.77128 | -120.99681 | 17983 ft | 321 kts | 259° |
| 2026-04-26 15:14 | 37.76646 | -121.02437 | 17545 ft | 318 kts | 259° |
| 2026-04-26 15:14 | 37.76170 | -121.05157 | 17121 ft | 316 kts | 259° |
| 2026-04-26 15:15 | 37.75695 | -121.07871 | 16699 ft | 314 kts | 259° |
| 2026-04-26 15:15 | 37.75235 | -121.10529 | 16283 ft | 313 kts | 259° |
| 2026-04-26 15:15 | 37.74771 | -121.13204 | 15867 ft | 311 kts | 259° |
| 2026-04-26 15:15 | 37.74307 | -121.15861 | 15453 ft | 309 kts | 259° |
| 2026-04-26 15:16 | 37.73845 | -121.18507 | 15039 ft | 307 kts | 259° |
| 2026-04-26 15:16 | 37.73386 | -121.21135 | 14632 ft | 305 kts | 259° |
| 2026-04-26 15:16 | 37.72929 | -121.23747 | 14224 ft | 303 kts | 259° |
| 2026-04-26 15:16 | 37.72474 | -121.26345 | 13811 ft | 301 kts | 259° |
| 2026-04-26 15:17 | 37.72023 | -121.28917 | 13385 ft | 299 kts | 259° |
| 2026-04-26 15:17 | 37.71724 | -121.30617 | 13120 ft | 299 kts | 259° |
| 2026-04-26 15:17 | 37.71022 | -121.33997 | 12581 ft | 298 kts | 252° |
| 2026-04-26 15:17 | 37.70335 | -121.36466 | 12193 ft | 298 kts | 252° |
| 2026-04-26 15:18 | 37.69665 | -121.38937 | 11798 ft | 297 kts | 252° |
| 2026-04-26 15:18 | 37.69003 | -121.41407 | 11399 ft | 296 kts | 252° |
| 2026-04-26 15:18 | 37.68338 | -121.43860 | 11005 ft | 295 kts | 252° |
| 2026-04-26 15:18 | 37.67672 | -121.46303 | 10613 ft | 294 kts | 252° |
| 2026-04-26 15:19 | 37.67017 | -121.48710 | 10227 ft | 293 kts | 252° |
| 2026-04-26 15:19 | 37.66360 | -121.51126 | 9834 ft | 281 kts | 252° |
| 2026-04-26 15:19 | 37.65736 | -121.53409 | 9437 ft | 275 kts | 252° |
| 2026-04-26 15:19 | 37.65120 | -121.55683 | 9068 ft | 273 kts | 252° |
| 2026-04-26 15:20 | 37.64509 | -121.57925 | 8702 ft | 264 kts | 251° |
| 2026-04-26 15:20 | 37.63925 | -121.60055 | 8352 ft | 250 kts | 251° |
| 2026-04-26 15:20 | 37.63372 | -121.62077 | 8020 ft | 238 kts | 251° |
| 2026-04-26 15:20 | 37.62845 | -121.64007 | 7704 ft | 228 kts | 251° |
| 2026-04-26 15:21 | 37.62337 | -121.65861 | 7400 ft | 220 kts | 251° |
| 2026-04-26 15:21 | 37.61846 | -121.67657 | 7118 ft | 213 kts | 251° |
| 2026-04-26 15:21 | 37.61623 | -121.69459 | 6951 ft | 204 kts | 273° |
| 2026-04-26 15:21 | 37.61789 | -121.71216 | 7012 ft | 205 kts | 275° |
| 2026-04-26 15:22 | 37.61933 | -121.73024 | 7009 ft | 208 kts | 274° |
| 2026-04-26 15:22 | 37.62078 | -121.74866 | 6838 ft | 212 kts | 274° |
| 2026-04-26 15:22 | 37.62230 | -121.76715 | 6583 ft | 210 kts | 274° |
| 2026-04-26 15:22 | 37.62382 | -121.78545 | 6341 ft | 211 kts | 274° |
| 2026-04-26 15:23 | 37.62533 | -121.80385 | 6057 ft | 210 kts | 274° |
| 2026-04-26 15:23 | 37.62680 | -121.82190 | 5809 ft | 209 kts | 274° |
| 2026-04-26 15:23 | 37.62829 | -121.84013 | 5551 ft | 207 kts | 274° |
| 2026-04-26 15:23 | 37.62976 | -121.85807 | 5298 ft | 205 kts | 274° |
| 2026-04-26 15:24 | 37.63121 | -121.87598 | 5052 ft | 203 kts | 274° |
| 2026-04-26 15:24 | 37.63264 | -121.89366 | 4795 ft | 203 kts | 274° |
| 2026-04-26 15:24 | 37.63407 | -121.91124 | 4556 ft | 201 kts | 275° |
| 2026-04-26 15:24 | 37.63561 | -121.92875 | 4302 ft | 200 kts | 276° |
| 2026-04-26 15:25 | 37.64016 | -121.94545 | 4076 ft | 203 kts | 291° |
| 2026-04-26 15:25 | 37.64396 | -121.95622 | 3932 ft | 204 kts | 292° |
| 2026-04-26 15:25 | 37.65157 | -121.97804 | 3587 ft | 201 kts | 291° |
| 2026-04-26 15:25 | 37.65690 | -121.99428 | 3327 ft | 199 kts | 291° |
| 2026-04-26 15:26 | 37.66211 | -122.01026 | 3090 ft | 197 kts | 291° |
| 2026-04-26 15:26 | 37.66731 | -122.02626 | 2841 ft | 197 kts | 290° |
| 2026-04-26 15:26 | 37.67241 | -122.04227 | 2602 ft | 196 kts | 290° |
| 2026-04-26 15:26 | 37.67753 | -122.05815 | 2367 ft | 193 kts | 290° |
| 2026-04-26 15:27 | 37.68258 | -122.07377 | 2129 ft | 192 kts | 290° |
| 2026-04-26 15:27 | 37.68751 | -122.08905 | 1989 ft | 181 kts | 292° |
| 2026-04-26 15:27 | 37.69185 | -122.10252 | 1741 ft | 156 kts | 292° |
| 2026-04-26 15:27 | 37.69598 | -122.11534 | 1533 ft | 158 kts | 292° |
| 2026-04-26 15:28 | 37.70017 | -122.12834 | 1325 ft | 159 kts | 292° |
| 2026-04-26 15:28 | 37.70437 | -122.14139 | 1099 ft | 161 kts | 292° |
| 2026-04-26 15:28 | 37.70835 | -122.15371 | 905 ft | 140 kts | 292° |
| 2026-04-26 15:28 | 37.71173 | -122.16416 | 720 ft | 121 kts | 290° |
| 2026-04-26 15:29 | 37.71481 | -122.17360 | 566 ft | 112 kts | 291° |
| 2026-04-26 15:29 | 37.71768 | -122.18265 | 418 ft | 112 kts | 291° |
| 2026-04-26 15:29 | 37.72327 | -122.20032 | 139 ft | 104 kts | 291° |
| 2026-04-26 15:30 | 37.72745 | -122.21244 | 4 ft | 22 kts | 308° |
| 2026-04-26 15:30 | 37.72837 | -122.21287 | 3 ft | 1 kts | 349° |
| 2026-04-26 15:30 | 37.72838 | -122.21288 | 3 ft | 0 kts | 349° |
| 2026-04-26 15:31 | 37.72839 | -122.21288 | 3 ft | 0 kts | 349° |
| 2026-04-26 15:31 | 37.72887 | -122.21282 | 3 ft | 10 kts | 15° |
| 2026-04-26 15:31 | 37.72930 | -122.21280 | 3 ft | 0 kts | 319° |